Time;durP1;ratioP1;P1;durP2;ratioP2;P2;SDS_P1;SDS_P2;PMS_P1;PMS_P2;Temp;Humidity;BMP_temperature;BMP_pressure;BME280_temperature;BME280_humidity;BME280_pressure;Samples;Min_cycle;Max_cycle;Signal;HPM_P1;HPM_P2
2021/04/21 00:01:45;;;;;;;21.00;12.02;;;;;;;7.31;67.63;96535.84;5008510;28;20038;-63
2021/04/21 00:04:14;;;;;;;19.45;10.65;;;;;;;7.27;67.70;96536.56;5002125;28;20523;-62
2021/04/21 00:06:40;;;;;;;23.10;11.90;;;;;;;7.31;67.23;96536.66;5008218;28;20045;-63
2021/04/21 00:09:10;;;;;;;22.55;12.15;;;;;;;7.37;67.09;96535.25;5003365;28;20041;-62
2021/04/21 00:11:38;;;;;;;18.25;11.13;;;;;;;7.35;66.64;96548.44;5012045;28;20432;-63
2021/04/21 00:14:03;;;;;;;24.17;12.95;;;;;;;7.27;67.26;96533.84;5003716;28;20053;-61
2021/04/21 00:16:33;;;;;;;19.98;11.82;;;;;;;7.08;67.07;96539.16;5005610;28;20576;-62
2021/04/21 00:19:01;;;;;;;19.80;11.75;;;;;;;6.86;67.84;96537.75;5007610;28;20460;-63
2021/04/21 00:21:28;;;;;;;23.95;12.77;;;;;;;6.37;69.88;96530.50;5000398;28;20051;-63
2021/04/21 00:23:53;;;;;;;24.02;13.00;;;;;;;5.58;73.10;96525.31;5007469;28;20049;-63
2021/04/21 00:26:21;;;;;;;21.20;10.95;;;;;;;5.44;72.89;96528.38;5001347;28;20382;-62
2021/04/21 00:28:48;;;;;;;20.55;11.10;;;;;;;5.45;72.76;96526.44;5008747;28;20046;-63
2021/04/21 00:31:16;;;;;;;17.95;10.73;;;;;;;5.62;72.08;96534.38;5003205;28;20382;-63
2021/04/21 00:33:43;;;;;;;16.15;9.93;;;;;;;5.73;71.33;96529.31;5007437;28;20042;-63
2021/04/21 00:36:14;;;;;;;23.67;10.82;;;;;;;5.89;70.51;96532.16;5002931;28;20058;-63
2021/04/21 00:38:41;;;;;;;17.63;9.32;;;;;;;5.86;70.61;96521.94;5005518;28;20485;-63
2021/04/21 00:41:21;;;;;;;20.75;10.15;;;;;;;5.77;71.13;96524.78;5001788;28;20511;-62
2021/04/21 00:44:24;;;;;;;19.65;10.25;;;;;;;5.65;70.92;96524.75;5007309;28;20077;-62
2021/04/21 00:46:55;;;;;;;17.65;10.00;;;;;;;5.55;70.92;96517.84;4980219;28;20101;-63
2021/04/21 00:49:28;;;;;;;19.38;10.05;;;;;;;5.28;71.97;96511.94;4996493;28;20056;-63
2021/04/21 00:52:22;;;;;;;19.55;10.60;;;;;;;5.29;71.65;96518.13;5005790;28;20069;-63
2021/04/21 00:55:04;;;;;;;16.88;10.00;;;;;;;5.10;72.46;96524.88;4964847;28;20049;-62
2021/04/21 00:57:52;;;;;;;21.17;11.60;;;;;;;4.98;73.20;96519.41;5005378;28;20038;-62
2021/04/21 01:00:31;;;;;;;27.23;13.82;;;;;;;4.85;73.33;96517.81;5003014;28;20052;-62
2021/04/21 01:03:20;;;;;;;21.80;11.90;;;;;;;4.78;73.56;96513.69;5003469;28;20088;-62
2021/04/21 01:05:58;;;;;;;;;;;;;;;4.69;74.25;96514.91;4997671;28;20108;-63
2021/04/21 01:08:32;;;;;;;20.08;11.00;;;;;;;4.68;74.54;96518.72;4997036;28;20495;-62
2021/04/21 01:11:02;;;;;;;19.00;10.57;;;;;;;4.63;73.99;96511.59;4999908;28;20042;-61
2021/04/21 01:13:34;;;;;;;;;;;;;;;4.69;74.62;96512.97;4996332;28;20049;-64
2021/04/21 01:16:01;;;;;;;24.15;12.13;;;;;;;4.69;74.23;96514.91;5004320;28;19917;-64
2021/04/21 01:18:30;;;;;;;19.25;10.70;;;;;;;4.72;74.71;96516.97;4999367;28;20042;-63
2021/04/21 01:21:02;;;;;;;20.58;12.00;;;;;;;4.71;73.97;96508.00;4999835;28;20038;-61
2021/04/21 01:23:40;;;;;;;18.98;9.77;;;;;;;4.63;74.72;96514.31;4996731;28;20766;-63
2021/04/21 01:26:42;;;;;;;18.50;9.98;;;;;;;4.56;74.60;96514.84;4995624;28;20492;-62
2021/04/21 01:29:08;;;;;;;19.30;10.75;;;;;;;4.37;75.19;96507.16;4997383;28;20052;-64
2021/04/21 01:31:35;;;;;;;21.35;10.20;;;;;;;4.17;76.24;96510.69;5002303;28;20056;-62
2021/04/21 01:34:04;;;;;;;18.75;10.57;;;;;;;3.83;77.37;96499.75;5003463;28;20561;-63
2021/04/21 01:36:31;;;;;;;21.33;11.38;;;;;;;3.54;78.98;96505.91;5002074;28;20045;-63
2021/04/21 01:39:01;;;;;;;24.42;11.70;;;;;;;3.39;79.89;96503.78;5003138;28;20053;-63
2021/04/21 01:41:30;;;;;;;26.25;11.63;;;;;;;3.28;80.77;96506.03;4990352;28;20644;-63
2021/04/21 01:44:03;;;;;;;21.83;12.00;;;;;;;3.30;80.98;96503.78;4994280;28;20136;-64
2021/04/21 01:46:34;;;;;;;24.73;11.27;;;;;;;3.49;80.01;96508.00;4984529;28;20061;-62
2021/04/21 01:49:33;;;;;;;21.98;12.88;;;;;;;3.67;79.07;96512.22;4996495;28;20109;-63
2021/04/21 01:52:09;;;;;;;20.98;11.10;;;;;;;3.71;79.10;96521.31;5000506;28;20105;-62
2021/04/21 01:54:38;;;;;;;22.02;11.55;;;;;;;3.62;78.99;96510.50;4993156;28;20501;-64
2021/04/21 01:57:23;;;;;;;19.90;11.15;;;;;;;3.43;78.11;96518.25;4981110;28;20054;-61
2021/04/21 01:59:55;;;;;;;19.33;11.10;;;;;;;3.32;79.83;96514.31;4991698;28;20041;-62
2021/04/21 02:02:30;;;;;;;24.00;11.93;;;;;;;3.21;80.27;96511.94;4998850;28;20042;-62
2021/04/21 02:05:29;;;;;;;19.02;11.10;;;;;;;3.11;79.86;96511.50;5002777;28;20042;-63
2021/04/21 02:08:12;;;;;;;21.60;11.90;;;;;;;2.94;81.47;96515.84;5001870;28;20042;-63
2021/04/21 02:10:37;;;;;;;19.65;10.90;;;;;;;2.61;82.40;96510.94;5001814;28;20038;-62
2021/04/21 02:13:33;;;;;;;28.42;12.63;;;;;;;2.53;82.99;96521.75;5001214;28;20048;-60
2021/04/21 02:16:10;;;;;;;26.67;12.48;;;;;;;2.72;83.34;96513.31;5014267;28;20038;-66
2021/04/21 02:18:54;;;;;;;33.42;13.02;;;;;;;3.04;81.92;96512.78;5007261;28;20128;-63
2021/04/21 02:21:42;;;;;;;30.80;13.00;;;;;;;3.23;80.81;96515.13;5002686;28;20049;-62
2021/04/21 02:24:25;;;;;;;26.80;11.75;;;;;;;3.39;79.82;96514.59;4996676;28;20078;-63
2021/04/21 02:27:20;;;;;;;23.73;10.90;;;;;;;3.43;78.92;96519.03;5002625;28;20165;-63
2021/04/21 02:29:50;;;;;;;23.75;10.88;;;;;;;3.37;78.42;96516.84;5003971;28;20530;-63
2021/04/21 02:32:55;;;;;;;28.25;11.98;;;;;;;3.37;78.37;96520.34;4997595;28;20033;-62
2021/04/21 02:35:24;;;;;;;25.52;12.52;;;;;;;3.32;78.31;96525.91;4981438;28;20391;-63
2021/04/21 02:38:12;;;;;;;25.73;12.73;;;;;;;3.28;79.22;96529.59;5002580;28;20038;-62
2021/04/21 02:41:02;;;;;;;18.40;10.48;;;;;;;3.35;77.98;96521.75;4991284;28;20485;-63
2021/04/21 02:43:48;;;;;;;44.88;14.98;;;;;;;3.15;77.57;96525.97;4992120;28;20450;-62
2021/04/21 02:46:23;;;;;;;24.08;10.18;;;;;;;3.15;78.48;96521.38;4997347;28;20050;-59
2021/04/21 02:48:56;;;;;;;29.45;12.32;;;;;;;3.17;78.21;96508.31;5001529;28;20048;-63
2021/04/21 02:51:53;;;;;;;25.25;12.10;;;;;;;3.15;78.84;96510.53;4995684;28;20471;-59
2021/04/21 02:54:49;;;;;;;25.90;12.65;;;;;;;3.22;78.81;96512.72;4995956;28;20052;-61
2021/04/21 02:57:56;;;;;;;22.77;12.73;;;;;;;3.27;79.47;96515.25;4940386;28;20182;-63
2021/04/21 03:00:33;;;;;;;24.67;12.27;;;;;;;3.31;78.93;96510.78;4953133;28;20078;-60
2021/04/21 03:03:20;;;;;;;26.73;12.23;;;;;;;3.26;79.37;96513.69;4996019;28;20053;-60
2021/04/21 03:05:50;;;;;;;22.02;12.05;;;;;;;3.17;79.90;96513.72;4995072;28;20046;-60
2021/04/21 03:08:21;;;;;;;23.17;11.82;;;;;;;3.21;80.45;96506.53;4990931;28;20038;-61
2021/04/21 03:11:07;;;;;;;23.42;11.52;;;;;;;3.18;79.27;96507.16;4998384;28;20046;-62
2021/04/21 03:13:39;;;;;;;24.60;11.52;;;;;;;3.19;79.16;96510.69;5009599;28;20492;-62
2021/04/21 03:16:09;;;;;;;25.23;12.93;;;;;;;3.15;79.18;96507.00;5011452;28;20141;-62
2021/04/21 03:18:37;;;;;;;;;;;;;;;3.16;79.49;96500.50;5015348;28;20418;-61
2021/04/21 03:21:10;;;;;;;22.17;11.27;;;;;;;3.06;78.96;96507.03;5016938;28;19920;-64
2021/04/21 03:23:40;;;;;;;20.92;11.40;;;;;;;2.91;79.24;96511.06;5016022;28;20110;-62
2021/04/21 03:26:06;;;;;;;21.08;11.43;;;;;;;3.00;80.30;96513.75;5013809;28;20045;-61
2021/04/21 03:28:35;;;;;;;23.38;11.35;;;;;;;3.00;79.95;96514.53;5020469;28;20148;-64
2021/04/21 03:31:04;;;;;;;20.90;11.97;;;;;;;2.90;79.84;96514.88;5014977;28;20128;-60
2021/04/21 03:33:35;;;;;;;22.80;10.60;;;;;;;2.87;80.64;96512.81;4983493;28;20042;-62
2021/04/21 03:36:03;;;;;;;26.38;11.85;;;;;;;2.59;79.45;96507.78;5000569;28;20041;-63
2021/04/21 03:38:29;;;;;;;23.02;11.82;;;;;;;2.28;82.06;96514.13;4998072;28;20430;-63
2021/04/21 03:40:55;;;;;;;25.27;13.50;;;;;;;2.02;83.20;96516.00;5000724;28;20382;-62
2021/04/21 03:43:21;;;;;;;31.10;14.88;;;;;;;1.87;84.71;96509.13;4992285;28;20107;-62
2021/04/21 03:45:49;;;;;;;28.95;13.68;;;;;;;1.88;84.52;96505.34;4995715;28;20128;-61
2021/04/21 03:48:16;;;;;;;32.20;13.52;;;;;;;1.98;84.60;96502.34;4994486;28;20114;-62
2021/04/21 03:50:45;;;;;;;34.63;13.57;;;;;;;2.00;84.92;96502.81;5002060;28;20127;-62
2021/04/21 03:53:13;;;;;;;32.03;14.40;;;;;;;2.09;84.69;96509.03;4993455;28;20053;-62
2021/04/21 03:55:40;;;;;;;29.02;14.18;;;;;;;2.33;85.09;96502.34;4994103;28;20058;-62
2021/04/21 03:58:09;;;;;;;27.38;13.30;;;;;;;2.43;83.43;96502.06;4993522;28;20050;-62
2021/04/21 04:00:39;;;;;;;29.00;12.53;;;;;;;2.48;83.50;96499.19;4995305;28;20038;-61
2021/04/21 04:03:09;;;;;;;26.10;13.10;;;;;;;2.64;82.99;96507.59;4987457;28;20051;-62
2021/04/21 04:05:43;;;;;;;25.88;12.63;;;;;;;2.60;82.54;96497.75;4997062;28;20042;-61
2021/04/21 04:08:11;;;;;;;25.55;12.82;;;;;;;2.62;81.92;96504.41;5007193;28;20042;-61
2021/04/21 04:10:44;;;;;;;27.70;12.88;;;;;;;2.53;81.59;96500.91;5002110;28;20101;-62
2021/04/21 04:13:12;;;;;;;23.73;11.23;;;;;;;2.48;81.72;96506.47;4994411;28;20049;-61
2021/04/21 04:15:39;;;;;;;26.00;12.63;;;;;;;2.52;81.71;96507.47;4993745;28;20041;-61
2021/04/21 04:18:06;;;;;;;23.23;11.63;;;;;;;2.49;81.33;96503.47;4987141;28;20046;-62
2021/04/21 04:20:36;;;;;;;27.17;13.77;;;;;;;2.46;81.06;96506.81;5000134;28;20050;-61
2021/04/21 04:23:06;;;;;;;28.20;12.50;;;;;;;2.47;81.28;96510.31;4997878;28;20488;-62
2021/04/21 04:25:33;;;;;;;;;;;;;;;2.54;81.71;96507.13;4992391;28;20045;-60
2021/04/21 04:28:00;;;;;;;25.13;12.25;;;;;;;2.64;81.15;96509.50;5001363;28;19975;-63
2021/04/21 04:30:26;;;;;;;28.05;13.50;;;;;;;2.62;80.82;96514.44;4991582;28;20076;-61
2021/04/21 04:32:52;;;;;;;24.15;12.90;;;;;;;2.65;80.44;96522.72;5004037;28;20128;-62
2021/04/21 04:35:17;;;;;;;27.75;11.98;;;;;;;2.58;80.87;96518.91;4995916;28;20049;-63
2021/04/21 04:37:43;;;;;;;26.50;12.45;;;;;;;2.60;80.75;96525.56;5004803;28;20508;-60
2021/04/21 04:40:12;;;;;;;27.05;14.10;;;;;;;2.59;81.27;96524.00;4998234;28;20041;-64
2021/04/21 04:42:38;;;;;;;26.93;13.70;;;;;;;2.65;81.82;96525.41;5003093;28;20033;-61
2021/04/21 04:45:05;;;;;;;23.45;12.73;;;;;;;2.67;81.10;96527.81;4999438;28;20050;-62
2021/04/21 04:47:43;;;;;;;26.52;12.93;;;;;;;2.79;81.28;96530.66;4989154;28;20050;-61
2021/04/21 04:50:14;;;;;;;27.88;13.35;;;;;;;2.86;80.65;96527.44;4994355;28;20045;-67
2021/04/21 04:52:46;;;;;;;23.05;13.48;;;;;;;2.71;79.99;96534.16;5000019;28;20056;-63
2021/04/21 04:55:15;;;;;;;28.75;13.05;;;;;;;2.68;80.46;96532.91;4994198;28;20412;-60
2021/04/21 04:57:46;;;;;;;25.98;12.43;;;;;;;2.79;79.79;96544.19;5003527;28;20042;-63
2021/04/21 05:00:15;;;;;;;25.52;12.50;;;;;;;2.87;79.52;96542.56;4997971;28;20046;-62
2021/04/21 05:02:57;;;;;;;25.42;12.88;;;;;;;3.05;79.51;96541.44;5000045;28;20042;-62
2021/04/21 05:05:23;;;;;;;24.75;12.32;;;;;;;3.16;78.98;96544.59;4994368;28;20954;-60
2021/04/21 05:08:04;;;;;;;22.55;11.93;;;;;;;3.32;78.59;96553.00;4996587;28;20053;-64
2021/04/21 05:10:34;;;;;;;27.85;12.80;;;;;;;3.92;78.61;96559.28;5001370;28;20493;-60
2021/04/21 05:13:02;;;;;;;;;;;;;;;5.15;72.84;96557.25;5002001;28;20053;-60
2021/04/21 05:15:37;;;;;;;20.85;10.73;;;;;;;6.15;69.19;96555.50;5002093;28;19917;-63
2021/04/21 05:18:25;;;;;;;19.50;10.55;;;;;;;7.52;62.65;96557.41;4998413;28;20103;-63
2021/04/21 05:21:13;;;;;;;19.80;10.32;;;;;;;9.07;56.35;96556.28;4998986;28;20054;-62
2021/04/21 05:24:00;;;;;;;20.40;11.55;;;;;;;10.37;54.57;96551.13;5004826;28;20618;-62
2021/04/21 05:26:38;;;;;;;21.70;12.30;;;;;;;11.74;49.81;96556.28;5000241;28;20050;-61
2021/04/21 05:30:00;;;;;;;22.33;11.20;;;;;;;12.59;46.80;96561.69;4992305;28;20144;-62
2021/04/21 05:33:03;;;;;;;17.50;10.82;;;;;;;12.73;44.87;96554.69;4972954;28;20050;-63
2021/04/21 05:35:34;;;;;;;18.85;11.23;;;;;;;14.12;42.36;96562.59;4960930;28;20668;-62
2021/04/21 05:38:31;;;;;;;19.73;10.93;;;;;;;14.45;41.85;96562.59;5013296;28;20052;-61
2021/04/21 05:41:15;;;;;;;18.85;11.27;;;;;;;15.02;40.47;96568.00;5018745;28;20132;-62
2021/04/21 05:44:12;;;;;;;18.20;10.50;;;;;;;15.56;39.52;96567.78;4996698;28;20145;-62
2021/04/21 05:46:43;;;;;;;17.48;9.98;;;;;;;16.14;38.14;96572.97;4976866;28;20034;-61
2021/04/21 05:49:21;;;;;;;16.65;9.90;;;;;;;16.26;37.47;96566.94;4989457;28;20049;-61
2021/04/21 05:52:11;;;;;;;16.90;9.13;;;;;;;16.47;36.96;96567.94;4996042;28;20065;-62
2021/04/21 05:55:01;;;;;;;21.48;10.85;;;;;;;15.60;38.34;96567.75;4988188;28;20501;-60
2021/04/21 05:57:56;;;;;;;15.82;10.68;;;;;;;14.56;41.67;96570.84;4995223;28;20559;-62
2021/04/21 06:01:06;;;;;;;21.75;11.77;;;;;;;9.33;55.31;96582.97;4992874;28;20552;-62
2021/04/21 06:03:34;;;;;;;29.40;17.63;;;;;;;9.75;55.91;96577.47;4944336;28;20382;-62
2021/04/21 06:06:04;;;;;;;29.45;15.95;;;;;;;10.08;54.32;96578.00;4997220;28;20125;-62
2021/04/21 06:08:30;;;;;;;24.70;13.38;;;;;;;10.38;53.36;96586.34;5014343;28;20042;-61
2021/04/21 06:10:56;;;;;;;22.02;12.07;;;;;;;10.15;53.81;96586.34;4992955;28;20470;-63
2021/04/21 06:13:33;;;;;;;35.70;25.00;;;;;;;10.99;54.45;96589.16;4992140;28;20046;-62
2021/04/21 06:15:59;;;;;;;24.33;15.50;;;;;;;11.59;50.02;96586.31;4992901;28;20070;-62
2021/04/21 06:18:25;;;;;;;29.85;21.25;;;;;;;13.34;45.87;96593.50;4992986;28;20216;-63
2021/04/21 06:20:52;;;;;;;20.92;12.63;;;;;;;15.63;40.31;96575.25;4999006;28;20502;-63
2021/04/21 06:23:23;;;;;;;17.15;11.00;;;;;;;17.23;37.46;96581.81;5002350;28;20506;-63
2021/04/21 06:25:59;;;;;;;17.60;10.40;;;;;;;18.69;34.16;96578.91;5023829;28;20049;-63
2021/04/21 06:28:25;;;;;;;26.63;18.65;;;;;;;18.55;33.58;96584.72;5009057;28;20061;-63
2021/04/21 06:31:03;;;;;;;20.73;12.82;;;;;;;16.04;37.51;96588.41;5002702;28;20093;-62
2021/04/21 06:33:57;;;;;;;20.55;12.65;;;;;;;17.34;36.22;96588.78;4999471;28;20045;-62
2021/04/21 06:36:23;;;;;;;24.02;12.95;;;;;;;14.64;40.64;96597.22;4986738;28;20060;-62
2021/04/21 06:38:53;;;;;;;22.67;12.82;;;;;;;12.99;45.49;96595.66;5015864;28;20050;-61
2021/04/21 06:41:24;;;;;;;22.45;13.00;;;;;;;10.16;53.97;96607.09;4995906;28;20100;-62
2021/04/21 06:43:49;;;;;;;23.92;12.52;;;;;;;14.17;44.02;96593.66;5020621;28;20404;-63
2021/04/21 06:46:18;;;;;;;21.60;12.38;;;;;;;16.24;39.25;96588.66;5015379;28;20076;-62
2021/04/21 06:48:44;;;;;;;17.10;10.85;;;;;;;16.62;38.04;96589.53;5021603;28;20072;-62
2021/04/21 06:51:12;;;;;;;18.17;10.93;;;;;;;18.33;34.66;96590.59;5009949;28;20080;-63
2021/04/21 06:53:39;;;;;;;14.70;10.05;;;;;;;19.14;33.79;96582.47;5023890;28;20136;-63
2021/04/21 06:56:08;;;;;;;20.55;10.82;;;;;;;15.37;39.12;96593.09;5018443;28;20132;-60
2021/04/21 06:58:35;;;;;;;20.17;10.63;;;;;;;15.35;40.64;96593.50;5021827;28;20515;-63
2021/04/21 07:01:17;;;;;;;20.17;11.23;;;;;;;17.83;36.15;96593.31;5019090;28;20296;-60
2021/04/21 07:03:44;;;;;;;17.92;10.48;;;;;;;17.74;35.58;96586.28;5018185;28;20117;-62
2021/04/21 07:06:09;;;;;;;18.13;10.40;;;;;;;17.34;36.85;96594.34;5013794;28;20034;-63
2021/04/21 07:08:38;;;;;;;18.15;10.05;;;;;;;17.21;37.77;96598.81;5013105;28;20055;-64
2021/04/21 07:11:08;;;;;;;18.83;9.63;;;;;;;18.68;33.69;96598.75;5017268;28;20400;-63
2021/04/21 07:13:52;;;;;;;15.10;9.55;;;;;;;18.90;34.53;96593.63;5020878;28;20100;-61
2021/04/21 07:16:20;;;;;;;14.80;9.20;;;;;;;18.85;34.86;96594.09;5016081;28;20041;-63
2021/04/21 07:19:00;;;;;;;15.50;9.88;;;;;;;19.22;34.19;96600.56;5021507;28;20045;-63
2021/04/21 07:21:26;;;;;;;;;;;;;;;16.76;38.14;96604.41;5012651;28;20510;-63
2021/04/21 07:23:54;;;;;;;17.20;10.15;;;;;;;17.55;37.74;96598.03;5015043;28;19971;-62
2021/04/21 07:26:53;;;;;;;17.08;9.90;;;;;;;17.22;37.67;96603.16;5016254;28;20057;-63
2021/04/21 07:29:21;;;;;;;21.15;10.52;;;;;;;18.44;36.70;96607.06;5008256;28;20068;-63
2021/04/21 07:31:46;;;;;;;15.93;9.63;;;;;;;18.84;35.38;96600.88;5014142;28;20049;-63
2021/04/21 07:34:13;;;;;;;18.45;10.23;;;;;;;17.70;37.09;96604.16;5006828;28;20519;-62
2021/04/21 07:36:47;;;;;;;18.63;11.40;;;;;;;16.92;39.02;96601.13;5019777;28;20052;-63
2021/04/21 07:39:13;;;;;;;21.65;11.95;;;;;;;19.37;35.49;96604.63;5013867;28;20049;-62
2021/04/21 07:41:47;;;;;;;21.95;11.52;;;;;;;17.66;38.24;96597.88;5002627;28;20045;-63
2021/04/21 07:44:26;;;;;;;18.95;10.63;;;;;;;19.54;34.53;96599.16;5003969;28;20057;-63
2021/04/21 07:47:04;;;;;;;17.90;10.60;;;;;;;19.36;35.09;96594.75;5018346;28;20068;-63
2021/04/21 07:49:31;;;;;;;17.02;10.73;;;;;;;19.57;35.22;96596.31;5018867;28;20075;-62
2021/04/21 07:51:57;;;;;;;22.90;10.63;;;;;;;19.60;34.82;96591.88;5020869;28;20076;-63
2021/04/21 07:54:23;;;;;;;16.67;11.05;;;;;;;18.98;36.20;96599.81;5012157;28;20591;-62
2021/04/21 07:56:50;;;;;;;19.25;11.38;;;;;;;19.44;35.46;96598.16;5013118;28;20046;-63
2021/04/21 07:59:22;;;;;;;19.60;10.13;;;;;;;19.21;35.90;96602.56;5002202;28;20125;-61
2021/04/21 08:01:49;;;;;;;17.55;11.23;;;;;;;18.66;36.32;96598.41;5022347;28;20053;-62
2021/04/21 08:04:20;;;;;;;16.67;9.23;;;;;;;19.13;36.92;96600.34;5020695;28;20217;-62
2021/04/21 08:06:48;;;;;;;15.70;10.35;;;;;;;18.90;36.29;96605.50;5031694;28;20042;-62
2021/04/21 08:09:15;;;;;;;17.77;10.77;;;;;;;17.90;37.96;96607.88;5029151;28;20117;-63
2021/04/21 08:11:41;;;;;;;15.90;10.30;;;;;;;18.89;36.91;96603.94;5031247;28;20048;-62
2021/04/21 08:14:06;;;;;;;15.77;10.07;;;;;;;19.04;36.61;96610.00;5012759;28;20124;-62
2021/04/21 08:16:36;;;;;;;17.48;9.52;;;;;;;18.21;38.73;96604.28;5016196;28;20037;-63
2021/04/21 08:19:19;;;;;;;15.65;9.02;;;;;;;19.62;35.89;96603.34;5024108;28;20087;-63
2021/04/21 08:21:48;;;;;;;16.02;8.95;;;;;;;19.33;36.93;96606.69;5003736;28;20042;-63
2021/04/21 08:24:17;;;;;;;18.23;9.70;;;;;;;18.98;37.07;96610.91;5013249;28;20161;-64
2021/04/21 08:26:48;;;;;;;15.82;9.77;;;;;;;18.27;37.65;96614.44;5021512;28;20041;-63
2021/04/21 08:29:15;;;;;;;13.68;9.57;;;;;;;18.60;38.06;96611.16;5017259;28;20077;-64
2021/04/21 08:31:43;;;;;;;14.52;9.32;;;;;;;17.71;40.08;96603.75;5018964;28;20124;-64
2021/04/21 08:34:09;;;;;;;15.43;9.40;;;;;;;18.71;37.75;96609.00;4996150;28;20667;-63
2021/04/21 08:36:34;;;;;;;15.82;9.13;;;;;;;18.58;38.23;96610.81;5021808;28;20124;-62
2021/04/21 08:39:00;;;;;;;14.50;9.18;;;;;;;17.27;39.96;96608.25;5040023;28;20049;-63
2021/04/21 08:41:27;;;;;;;11.38;8.15;;;;;;;18.23;38.23;96604.63;5024434;28;20042;-64
2021/04/21 08:43:54;;;;;;;18.17;9.20;;;;;;;18.82;37.54;96601.31;5017977;28;20071;-63
2021/04/21 08:46:21;;;;;;;14.40;9.18;;;;;;;17.58;38.79;96608.28;5019316;28;20049;-64
2021/04/21 08:48:47;;;;;;;16.33;9.10;;;;;;;18.28;37.85;96606.94;5024768;28;20045;-63
2021/04/21 08:51:16;;;;;;;13.48;8.13;;;;;;;19.06;36.60;96607.59;5017652;28;20400;-62
2021/04/21 08:53:44;;;;;;;11.43;7.63;;;;;;;18.73;36.99;96604.59;5022664;28;20049;-63
2021/04/21 08:56:15;;;;;;;14.53;8.40;;;;;;;18.64;37.13;96604.34;5016395;28;20040;-62
2021/04/21 08:58:40;;;;;;;;;;;;;;;18.71;36.48;96604.25;5016581;28;20359;-64
2021/04/21 09:01:06;;;;;;;11.27;7.37;;;;;;;18.85;36.05;96602.44;5016352;28;20503;-63
2021/04/21 09:03:35;;;;;;;14.13;8.38;;;;;;;19.55;34.57;96595.94;5014099;28;20555;-63
2021/04/21 09:06:02;;;;;;;13.52;7.78;;;;;;;19.03;35.03;96600.13;5014938;28;20053;-63
2021/04/21 09:08:29;;;;;;;11.13;6.90;;;;;;;19.18;34.97;96597.09;5020388;28;20041;-63
2021/04/21 09:10:56;;;;;;;13.32;8.15;;;;;;;19.57;35.28;96592.72;5023562;28;20618;-63
2021/04/21 09:13:21;;;;;;;12.88;8.35;;;;;;;19.69;33.64;96600.41;5015724;28;20057;-63
2021/04/21 09:15:47;;;;;;;11.23;7.50;;;;;;;19.70;34.26;96601.19;5023249;28;20049;-63
2021/04/21 09:18:13;;;;;;;12.93;7.45;;;;;;;19.31;34.77;96606.34;5017926;28;20044;-63
2021/04/21 09:20:45;;;;;;;13.57;8.07;;;;;;;18.91;36.13;96604.31;5014005;28;20053;-63
2021/04/21 09:23:14;;;;;;;14.27;7.45;;;;;;;18.76;36.56;96593.84;5018222;28;20041;-63
2021/04/21 09:25:43;;;;;;;12.80;7.78;;;;;;;19.02;35.03;96595.00;5021910;28;20400;-62
2021/04/21 09:28:10;;;;;;;12.02;7.45;;;;;;;19.10;34.56;96593.66;5017729;28;20044;-62
2021/04/21 09:30:37;;;;;;;16.73;7.65;;;;;;;18.12;37.00;96602.81;5023283;28;20048;-63
2021/04/21 09:33:04;;;;;;;12.57;7.32;;;;;;;19.48;34.11;96601.63;5020468;28;20037;-63
2021/04/21 09:35:38;;;;;;;10.23;7.15;;;;;;;19.82;33.82;96592.22;5013706;28;20085;-64
2021/04/21 09:38:10;;;;;;;10.68;7.38;;;;;;;19.43;34.36;96600.16;5019460;28;20137;-64
2021/04/21 09:40:40;;;;;;;11.07;7.05;;;;;;;19.57;33.25;96599.09;5024234;28;20038;-64
2021/04/21 09:43:08;;;;;;;10.50;7.15;;;;;;;19.04;35.72;96593.38;5017518;28;20160;-64
2021/04/21 09:45:37;;;;;;;10.55;6.97;;;;;;;19.52;34.31;96590.44;5023388;28;20053;-63
2021/04/21 09:48:10;;;;;;;12.38;6.90;;;;;;;18.73;35.26;96595.50;5027200;28;20432;-63
2021/04/21 09:50:37;;;;;;;10.95;7.07;;;;;;;18.40;35.72;96591.69;5023163;28;20029;-63
2021/04/21 09:53:27;;;;;;;12.85;6.97;;;;;;;18.54;35.98;96594.22;5028316;28;20045;-62
2021/04/21 09:55:58;;;;;;;;;;;;;;;19.51;34.27;96583.34;5019250;28;20076;-63
2021/04/21 09:58:34;;;;;;;9.07;6.10;;;;;;;19.71;33.20;96577.75;5000648;28;20377;-63
2021/04/21 10:01:00;;;;;;;11.25;6.22;;;;;;;19.71;32.42;96589.66;5015516;28;20140;-64
2021/04/21 10:03:25;;;;;;;10.73;6.75;;;;;;;18.57;34.33;96582.28;5007362;28;20049;-64
2021/04/21 10:05:51;;;;;;;10.00;6.45;;;;;;;19.62;33.17;96583.88;5022818;28;20049;-63
2021/04/21 10:08:22;;;;;;;12.50;7.80;;;;;;;20.22;31.79;96576.22;5020248;28;20037;-63
2021/04/21 10:11:03;;;;;;;11.05;5.57;;;;;;;20.08;31.53;96582.13;5018573;28;20546;-64
2021/04/21 10:13:43;;;;;;;13.98;6.97;;;;;;;19.42;32.33;96586.69;5021568;28;20052;-64
2021/04/21 10:16:10;;;;;;;10.73;6.63;;;;;;;19.96;31.91;96580.78;5016251;28;20444;-64
2021/04/21 10:18:36;;;;;;;10.50;6.03;;;;;;;19.18;32.84;96588.75;5014541;28;20472;-63
2021/04/21 10:21:04;;;;;;;9.82;6.15;;;;;;;19.07;33.13;96573.09;5020582;28;20068;-62
2021/04/21 10:23:30;;;;;;;12.38;6.15;;;;;;;19.14;33.22;96574.97;5013198;28;20061;-64
2021/04/21 10:26:04;;;;;;;13.48;6.40;;;;;;;19.53;32.81;96570.56;5021551;28;20045;-64
2021/04/21 10:28:32;;;;;;;8.55;6.03;;;;;;;19.78;32.43;96572.06;5021262;28;20405;-64
2021/04/21 10:30:57;;;;;;;9.65;6.15;;;;;;;19.62;32.43;96564.44;5022040;28;20124;-64
2021/04/21 10:33:26;;;;;;;8.85;5.55;;;;;;;18.99;32.94;96566.09;5009062;28;20577;-62
2021/04/21 10:35:51;;;;;;;8.43;5.28;;;;;;;19.21;32.35;96574.81;5020638;28;20549;-63
2021/04/21 10:38:22;;;;;;;10.63;5.90;;;;;;;19.10;32.54;96565.88;5015282;28;20114;-63
2021/04/21 10:40:48;;;;;;;10.68;6.40;;;;;;;19.31;32.76;96570.25;5020900;28;20050;-63
2021/04/21 10:43:13;;;;;;;11.10;6.85;;;;;;;18.76;33.88;96561.34;5014953;28;20445;-62
2021/04/21 10:45:51;;;;;;;14.85;6.97;;;;;;;19.04;32.43;96565.59;5014211;28;20045;-64
2021/04/21 10:48:40;;;;;;;12.45;7.40;;;;;;;19.29;33.06;96556.00;5025267;28;20033;-63
2021/04/21 10:51:36;;;;;;;9.57;6.03;;;;;;;18.84;32.69;96554.50;5023004;28;20087;-62
2021/04/21 10:54:04;;;;;;;11.63;6.72;;;;;;;18.88;32.88;96548.88;5033217;28;20071;-63
2021/04/21 10:56:30;;;;;;;9.75;5.55;;;;;;;19.05;31.97;96544.97;5019113;28;20042;-64
2021/04/21 10:58:57;;;;;;;11.60;7.25;;;;;;;18.94;32.20;96547.16;5016372;28;20037;-64
2021/04/21 11:01:28;;;;;;;9.88;5.80;;;;;;;18.61;33.17;96543.41;5016488;28;20271;-63
2021/04/21 11:03:53;;;;;;;12.15;6.78;;;;;;;18.41;33.50;96541.34;5020614;28;20133;-63
2021/04/21 11:06:37;;;;;;;11.88;7.20;;;;;;;18.27;34.04;96536.06;5007500;28;20121;-63
2021/04/21 11:09:03;;;;;;;13.10;7.72;;;;;;;18.41;34.32;96535.03;5018675;28;20156;-62
2021/04/21 11:11:42;;;;;;;13.80;6.95;;;;;;;17.87;33.16;96542.22;5003802;28;20136;-63
2021/04/21 11:14:10;;;;;;;11.82;7.13;;;;;;;17.48;35.66;96535.22;5015631;28;20049;-62
2021/04/21 11:16:38;;;;;;;10.90;6.65;;;;;;;17.17;36.53;96540.75;5021667;28;20041;-63
2021/04/21 11:19:18;;;;;;;11.68;6.95;;;;;;;17.27;35.92;96533.53;4990939;28;20050;-62
2021/04/21 11:22:08;;;;;;;10.75;6.30;;;;;;;17.20;36.76;96528.84;5011859;28;20534;-64
2021/04/21 11:24:35;;;;;;;13.32;6.95;;;;;;;17.31;37.05;96523.19;5000182;28;20057;-63
2021/04/21 11:27:00;;;;;;;11.35;6.57;;;;;;;17.42;34.92;96525.03;5001932;28;20085;-63
2021/04/21 11:29:26;;;;;;;15.55;7.35;;;;;;;16.78;36.30;96524.56;4996640;28;20099;-62
2021/04/21 11:31:52;;;;;;;11.02;6.18;;;;;;;16.82;36.86;96522.56;5000778;28;20061;-63
2021/04/21 11:34:21;;;;;;;11.13;6.80;;;;;;;17.02;36.89;96520.00;4995178;28;20401;-64
2021/04/21 11:37:09;;;;;;;12.37;6.40;;;;;;;16.89;36.70;96522.53;5010557;28;20513;-63
2021/04/21 11:39:44;;;;;;;14.60;6.63;;;;;;;16.94;36.52;96515.72;5000071;28;20285;-63
2021/04/21 11:42:28;;;;;;;12.10;5.78;;;;;;;16.85;36.35;96526.50;5004215;28;20156;-62
2021/04/21 11:45:00;;;;;;;10.65;5.72;;;;;;;16.98;35.07;96514.50;5011517;28;20115;-64
2021/04/21 11:47:30;;;;;;;12.60;6.55;;;;;;;16.86;35.11;96523.34;5014005;28;20060;-63
2021/04/21 11:49:58;;;;;;;12.77;6.72;;;;;;;16.97;35.45;96521.22;5020833;28;20095;-63
2021/04/21 11:52:51;;;;;;;11.25;5.78;;;;;;;17.10;35.37;96515.16;5015074;28;20792;-64
2021/04/21 11:55:21;;;;;;;13.48;7.10;;;;;;;17.04;34.21;96512.06;5020845;28;20049;-64